createdAt,value
2018-07-04T00:00:18.624Z,-92.00
2018-07-04T00:01:19.387Z,-92.00
2018-07-04T00:02:20.164Z,-94.00
2018-07-04T00:03:20.934Z,-93.00
2018-07-04T00:04:21.705Z,-93.00
2018-07-04T00:05:22.508Z,-92.00
2018-07-04T00:06:23.276Z,-93.00
2018-07-04T00:07:24.060Z,-91.00
2018-07-04T00:08:24.820Z,-92.00
2018-07-04T00:09:25.610Z,-93.00
2018-07-04T00:10:26.403Z,-94.00
2018-07-04T00:11:27.177Z,-93.00
2018-07-04T00:12:27.956Z,-92.00
2018-07-04T00:13:28.723Z,-93.00
2018-07-04T00:14:29.509Z,-92.00
2018-07-04T00:15:30.313Z,-92.00
2018-07-04T00:16:31.074Z,-91.00
2018-07-04T00:17:31.844Z,-92.00
2018-07-04T00:18:32.634Z,-94.00
2018-07-04T00:19:33.395Z,-92.00
2018-07-04T00:20:34.613Z,-93.00
2018-07-04T00:21:34.833Z,-93.00
2018-07-04T00:26:32.012Z,-90.00
2018-07-04T00:27:33.780Z,-90.00
2018-07-04T00:28:34.565Z,-93.00
2018-07-04T00:29:35.344Z,-91.00
2018-07-04T00:30:36.104Z,-95.00
2018-07-04T00:31:36.899Z,-92.00
2018-07-04T00:32:37.677Z,-91.00
2018-07-04T00:33:38.449Z,-91.00
2018-07-04T00:34:39.217Z,-91.00
2018-07-04T00:35:39.993Z,-92.00
2018-07-04T00:36:44.300Z,-93.00
2018-07-04T00:37:41.069Z,-93.00
2018-07-04T00:38:41.837Z,-92.00
2018-07-04T00:39:42.608Z,-91.00
2018-07-04T00:40:43.389Z,-92.00
2018-07-04T00:41:44.188Z,-91.00
2018-07-04T00:42:44.959Z,-92.00
2018-07-04T00:43:45.745Z,-92.00
2018-07-04T00:44:46.512Z,-91.00
2018-07-04T00:45:47.310Z,-93.00
2018-07-04T00:46:48.098Z,-92.00
2018-07-04T00:47:48.861Z,-93.00
2018-07-04T00:48:49.636Z,-94.00
2018-07-04T00:49:50.414Z,-93.00
2018-07-04T00:50:51.190Z,-92.00
2018-07-04T00:51:51.984Z,-92.00
2018-07-04T00:52:52.756Z,-92.00
2018-07-04T00:53:53.536Z,-92.00
2018-07-04T00:54:54.304Z,-93.00
2018-07-04T00:55:55.085Z,-92.00
2018-07-04T00:56:55.875Z,-93.00
2018-07-04T00:57:56.655Z,-91.00
2018-07-04T00:58:57.425Z,-91.00
2018-07-04T00:59:58.196Z,-92.00
2018-07-04T01:00:58.966Z,-91.00
2018-07-04T01:01:59.784Z,-91.00
2018-07-04T01:03:00.554Z,-93.00
2018-07-04T01:04:01.334Z,-94.00
2018-07-04T01:05:02.111Z,-93.00
2018-07-04T01:06:02.874Z,-94.00
2018-07-04T01:07:03.670Z,-92.00
2018-07-04T01:08:04.456Z,-94.00
2018-07-04T01:09:05.225Z,-94.00
2018-07-04T01:10:05.995Z,-93.00
2018-07-04T01:11:06.775Z,-93.00
2018-07-04T01:12:07.568Z,-91.00
2018-07-04T01:13:08.374Z,-92.00
2018-07-04T01:14:09.114Z,-91.00
2018-07-04T01:15:09.897Z,-92.00
2018-07-04T01:16:10.666Z,-93.00
2018-07-04T01:17:11.468Z,-92.00
2018-07-04T01:18:12.247Z,-94.00
2018-07-04T01:19:13.022Z,-92.00
2018-07-04T01:20:13.796Z,-94.00
2018-07-04T01:21:14.567Z,-93.00
2018-07-04T01:22:15.363Z,-92.00
2018-07-04T01:23:16.143Z,-91.00
2018-07-04T01:24:16.914Z,-91.00
2018-07-04T01:25:17.686Z,-91.00
2018-07-04T01:26:18.466Z,-93.00
2018-07-04T01:27:19.261Z,-93.00
2018-07-04T01:28:20.059Z,-92.00
2018-07-04T01:29:20.819Z,-93.00
2018-07-04T01:30:21.596Z,-92.00
2018-07-04T01:31:22.376Z,-90.00
2018-07-04T01:32:23.172Z,-90.00
2018-07-04T01:33:24.041Z,-88.00
2018-07-04T01:34:23.744Z,-91.00
2018-07-04T01:35:25.513Z,-95.00
2018-07-04T01:36:26.291Z,-93.00
2018-07-04T01:37:27.089Z,-92.00
2018-07-04T01:38:27.861Z,-93.00
2018-07-04T01:39:28.653Z,-92.00
2018-07-04T01:40:29.418Z,-93.00
2018-07-04T01:41:30.193Z,-91.00
2018-07-04T01:42:31.011Z,-92.00
2018-07-04T01:43:31.770Z,-93.00
2018-07-04T01:44:32.548Z,-91.00
2018-07-04T01:45:33.318Z,-93.00
2018-07-04T01:46:34.106Z,-91.00
2018-07-04T01:47:34.900Z,-94.00
2018-07-04T01:48:35.675Z,-92.00
2018-07-04T01:49:36.446Z,-93.00
2018-07-04T01:50:37.230Z,-93.00
2018-07-04T01:51:37.998Z,-94.00
2018-07-04T01:52:38.800Z,-92.00
2018-07-04T01:53:39.609Z,-93.00
2018-07-04T01:54:40.381Z,-94.00
2018-07-04T01:55:41.148Z,-94.00
2018-07-04T01:56:41.968Z,-92.00
2018-07-04T01:57:41.737Z,-94.00
2018-07-04T01:58:43.520Z,-91.00
2018-07-04T01:59:44.324Z,-94.00
2018-07-04T02:00:44.059Z,-93.00
2018-07-04T02:01:45.844Z,-92.00
2018-07-04T02:02:46.633Z,-94.00
2018-07-04T02:03:47.421Z,-94.00
2018-07-04T02:04:50.607Z,-93.00
2018-07-04T02:05:47.975Z,-92.00
2018-07-04T02:06:49.742Z,-92.00
2018-07-04T02:07:50.559Z,-93.00
2018-07-04T02:08:51.332Z,-94.00
2018-07-04T02:09:52.100Z,-92.00
2018-07-04T02:10:52.895Z,-93.00
2018-07-04T02:11:53.673Z,-94.00
2018-07-04T02:12:54.465Z,-91.00
2018-07-04T02:13:55.244Z,-92.00
2018-07-04T02:14:56.066Z,-92.00
2018-07-04T02:15:55.830Z,-96.00
2018-07-04T02:16:57.574Z,-92.00
2018-07-04T02:17:58.796Z,-92.00
2018-07-04T02:20:53.499Z,-90.00
2018-07-04T02:21:54.270Z,-89.00
2018-07-04T02:22:55.045Z,-91.00
2018-07-04T02:23:55.848Z,-90.00
2018-07-04T02:24:56.610Z,-91.00
2018-07-04T02:25:57.393Z,-89.00
2018-07-04T02:26:58.155Z,-90.00
2018-07-04T02:27:58.924Z,-89.00
2018-07-04T02:28:59.749Z,-92.00
2018-07-04T02:30:00.504Z,-89.00
2018-07-04T02:31:01.274Z,-88.00
2018-07-04T02:32:02.042Z,-89.00
2018-07-04T02:33:02.815Z,-91.00
2018-07-04T02:34:03.615Z,-92.00
2018-07-04T02:35:04.397Z,-90.00
2018-07-04T02:36:05.168Z,-90.00
2018-07-04T02:37:05.954Z,-89.00
2018-07-04T02:38:06.711Z,-89.00
2018-07-04T02:39:07.508Z,-90.00
2018-07-04T02:40:08.278Z,-90.00
2018-07-04T02:41:09.052Z,-94.00
2018-07-04T02:42:09.822Z,-91.00
2018-07-04T02:43:10.591Z,-92.00
2018-07-04T02:44:11.394Z,-92.00
2018-07-04T02:45:12.169Z,-92.00
2018-07-04T02:46:12.938Z,-92.00
2018-07-04T02:47:13.727Z,-92.00
2018-07-04T02:48:14.489Z,-93.00
2018-07-04T02:49:15.287Z,-92.00
2018-07-04T02:50:16.048Z,-91.00
2018-07-04T02:51:16.835Z,-92.00
2018-07-04T02:52:17.595Z,-91.00
2018-07-04T02:53:18.382Z,-91.00
2018-07-04T02:54:19.172Z,-93.00
2018-07-04T02:55:19.943Z,-93.00
2018-07-04T02:56:20.719Z,-93.00
2018-07-04T02:57:21.493Z,-93.00
2018-07-04T02:58:22.265Z,-92.00
2018-07-04T02:59:23.068Z,-92.00
2018-07-04T03:00:23.835Z,-92.00
2018-07-04T03:01:24.602Z,-93.00
2018-07-04T03:02:25.383Z,-92.00
2018-07-04T03:03:26.171Z,-92.00
2018-07-04T03:04:26.971Z,-93.00
2018-07-04T03:05:27.722Z,-91.00
2018-07-04T03:06:28.497Z,-91.00
2018-07-04T03:07:29.268Z,-91.00
2018-07-04T03:08:30.045Z,-91.00
2018-07-04T03:09:30.843Z,-91.00
2018-07-04T03:10:31.618Z,-91.00
2018-07-04T03:11:32.395Z,-91.00
2018-07-04T03:12:33.165Z,-92.00
2018-07-04T03:13:33.940Z,-91.00
2018-07-04T03:14:34.730Z,-93.00
2018-07-04T03:15:35.502Z,-92.00
2018-07-04T03:16:36.282Z,-90.00
2018-07-04T03:17:37.056Z,-91.00
2018-07-04T03:18:37.830Z,-91.00
2018-07-04T03:19:38.628Z,-91.00
2018-07-04T03:20:39.402Z,-92.00
2018-07-04T03:21:40.173Z,-92.00
2018-07-04T03:22:40.946Z,-93.00
2018-07-04T03:23:41.727Z,-93.00
2018-07-04T03:24:42.526Z,-92.00
2018-07-04T03:25:43.299Z,-93.00
2018-07-04T03:26:44.073Z,-92.00
2018-07-04T03:27:44.843Z,-94.00
2018-07-04T03:28:45.620Z,-92.00
2018-07-04T03:29:46.429Z,-93.00
2018-07-04T03:30:47.201Z,-92.00
2018-07-04T03:31:47.971Z,-92.00
2018-07-04T03:32:48.751Z,-92.00
2018-07-04T03:33:51.691Z,-92.00
2018-07-04T03:34:49.335Z,-92.00
2018-07-04T03:35:51.122Z,-92.00
2018-07-04T03:36:51.880Z,-91.00
2018-07-04T03:37:52.651Z,-93.00
2018-07-04T03:38:53.428Z,-94.00
2018-07-04T03:39:54.226Z,-93.00
2018-07-04T03:40:55.005Z,-94.00
2018-07-04T03:41:55.774Z,-92.00
2018-07-04T03:42:56.568Z,-94.00
2018-07-04T03:43:57.344Z,-93.00
2018-07-04T03:44:58.141Z,-93.00
2018-07-04T03:45:58.911Z,-91.00
2018-07-04T03:46:59.679Z,-92.00
2018-07-04T03:48:00.455Z,-91.00
2018-07-04T03:49:01.226Z,-92.00
2018-07-04T03:50:02.024Z,-92.00
2018-07-04T03:51:02.802Z,-91.00
2018-07-04T03:52:03.575Z,-91.00
2018-07-04T03:53:04.352Z,-92.00
2018-07-04T03:54:05.120Z,-92.00
2018-07-04T03:55:05.928Z,-92.00
2018-07-04T03:56:06.694Z,-92.00
2018-07-04T03:57:07.469Z,-92.00
2018-07-04T03:58:08.279Z,-93.00
2018-07-04T03:59:08.014Z,-92.00
2018-07-04T04:00:09.817Z,-91.00
2018-07-04T04:01:10.599Z,-92.00
2018-07-04T04:02:11.367Z,-91.00
2018-07-04T04:03:12.152Z,-93.00
2018-07-04T04:04:12.916Z,-94.00
2018-07-04T04:05:13.715Z,-92.00
2018-07-04T04:06:14.493Z,-93.00
2018-07-04T04:07:15.271Z,-92.00
2018-07-04T04:08:15.049Z,-93.00
2018-07-04T04:09:16.806Z,-92.00
2018-07-04T04:10:18.004Z,-92.00
2018-07-04T04:24:55.721Z,-90.00
2018-07-04T04:25:56.517Z,-89.00
2018-07-04T04:26:57.288Z,-91.00
2018-07-04T04:27:58.059Z,-91.00
2018-07-04T04:28:58.839Z,-91.00
2018-07-04T04:29:59.621Z,-91.00
2018-07-04T04:31:00.421Z,-92.00
2018-07-04T04:32:01.201Z,-92.00
2018-07-04T04:33:01.965Z,-92.00
2018-07-04T04:34:02.732Z,-91.00
2018-07-04T04:35:03.506Z,-92.00
2018-07-04T04:36:04.304Z,-90.00
2018-07-04T04:37:05.073Z,-90.00
2018-07-04T04:38:05.853Z,-91.00
2018-07-04T04:39:06.631Z,-92.00
2018-07-04T04:40:07.404Z,-91.00
2018-07-04T04:41:08.194Z,-91.00
2018-07-04T04:42:08.968Z,-92.00
2018-07-04T04:43:09.739Z,-91.00
2018-07-04T04:44:10.512Z,-91.00
2018-07-04T04:45:11.284Z,-92.00
2018-07-04T04:46:12.080Z,-92.00
2018-07-04T04:47:12.857Z,-93.00
2018-07-04T04:48:13.625Z,-93.00
2018-07-04T04:49:14.400Z,-92.00
2018-07-04T04:50:15.176Z,-91.00
2018-07-04T04:51:15.970Z,-92.00
2018-07-04T04:52:15.745Z,-90.00
2018-07-04T04:53:17.517Z,-91.00
2018-07-04T04:54:18.297Z,-92.00
2018-07-04T04:55:19.063Z,-91.00
2018-07-04T04:56:19.863Z,-91.00
2018-07-04T04:57:20.635Z,-91.00
2018-07-04T04:58:21.410Z,-92.00
2018-07-04T04:59:22.184Z,-91.00
2018-07-04T05:00:22.959Z,-91.00
2018-07-04T05:01:23.761Z,-92.00
2018-07-04T05:02:24.532Z,-91.00
2018-07-04T05:03:25.304Z,-92.00
2018-07-04T05:04:26.079Z,-92.00
2018-07-04T05:05:26.855Z,-91.00
2018-07-04T05:06:27.652Z,-91.00
2018-07-04T05:07:28.423Z,-92.00
2018-07-04T05:08:29.200Z,-92.00
2018-07-04T05:09:29.968Z,-92.00
2018-07-04T05:10:30.760Z,-91.00
2018-07-04T05:11:31.551Z,-91.00
2018-07-04T05:12:31.323Z,-92.00
2018-07-04T05:13:33.104Z,-91.00
2018-07-04T05:14:33.870Z,-92.00
2018-07-04T05:15:34.648Z,-92.00
2018-07-04T05:16:35.442Z,-90.00
2018-07-04T05:17:36.215Z,-91.00
2018-07-04T05:18:36.987Z,-94.00
2018-07-04T05:19:37.763Z,-92.00
2018-07-04T05:20:38.539Z,-92.00
2018-07-04T05:21:39.336Z,-92.00
2018-07-04T05:22:40.159Z,-92.00
2018-07-04T05:23:39.884Z,-92.00
2018-07-04T05:24:41.653Z,-92.00
2018-07-04T05:25:42.429Z,-92.00
2018-07-04T05:26:43.226Z,-91.00
2018-07-04T05:27:44.007Z,-92.00
2018-07-04T05:28:44.775Z,-92.00
2018-07-04T05:29:45.557Z,-91.00
2018-07-04T05:30:46.357Z,-91.00
2018-07-04T05:31:47.120Z,-91.00
2018-07-04T05:32:47.901Z,-91.00
2018-07-04T05:33:48.667Z,-92.00
2018-07-04T05:34:49.438Z,-92.00
2018-07-04T05:35:50.214Z,-92.00
2018-07-04T05:36:51.008Z,-91.00
2018-07-04T05:37:51.783Z,-92.00
2018-07-04T05:38:52.555Z,-91.00
2018-07-04T05:39:53.329Z,-92.00
2018-07-04T05:40:53.123Z,-92.00
2018-07-04T05:41:54.904Z,-93.00
2018-07-04T05:42:55.675Z,-94.00
2018-07-04T05:43:56.447Z,-91.00
2018-07-04T05:44:57.221Z,-92.00
2018-07-04T05:45:57.996Z,-92.00
2018-07-04T05:46:58.801Z,-92.00
2018-07-04T05:47:59.576Z,-92.00
2018-07-04T05:49:00.350Z,-92.00
2018-07-04T05:50:01.114Z,-91.00
2018-07-04T05:51:01.890Z,-91.00
2018-07-04T05:52:02.686Z,-91.00
2018-07-04T05:53:03.473Z,-92.00
2018-07-04T05:54:04.243Z,-91.00
2018-07-04T05:55:05.017Z,-92.00
2018-07-04T05:56:05.805Z,-92.00
2018-07-04T05:57:06.594Z,-91.00
2018-07-04T05:58:07.370Z,-92.00
2018-07-04T05:59:08.146Z,-92.00
2018-07-04T06:00:08.915Z,-91.00
2018-07-04T06:01:09.696Z,-92.00
2018-07-04T06:02:10.488Z,-92.00
2018-07-04T06:03:11.267Z,-92.00
2018-07-04T06:04:12.032Z,-93.00
2018-07-04T06:05:12.811Z,-93.00
2018-07-04T06:06:13.592Z,-92.00
2018-07-04T06:07:14.402Z,-94.00
2018-07-04T06:08:15.163Z,-91.00
2018-07-04T06:09:15.933Z,-92.00
2018-07-04T06:10:16.706Z,-92.00
2018-07-04T06:11:17.479Z,-91.00
2018-07-04T06:12:18.282Z,-91.00
2018-07-04T06:13:19.056Z,-91.00
2018-07-04T06:14:19.826Z,-92.00
2018-07-04T06:15:20.988Z,-92.00
2018-07-04T06:16:21.724Z,-92.00
2018-07-04T06:29:24.948Z,-89.00
2018-07-04T06:30:25.716Z,-90.00
2018-07-04T06:31:26.489Z,-91.00
2018-07-04T06:32:27.316Z,-89.00
2018-07-04T06:33:27.037Z,-89.00
2018-07-04T06:34:28.832Z,-90.00
2018-07-04T06:35:29.612Z,-89.00
2018-07-04T06:36:30.376Z,-89.00
2018-07-04T06:37:31.149Z,-89.00
2018-07-04T06:38:31.920Z,-89.00
2018-07-04T06:39:32.720Z,-89.00
2018-07-04T06:40:33.493Z,-90.00
2018-07-04T06:41:34.269Z,-90.00
2018-07-04T06:42:35.041Z,-89.00
2018-07-04T06:43:35.822Z,-89.00
2018-07-04T06:44:36.625Z,-90.00
2018-07-04T06:45:37.392Z,-90.00
2018-07-04T06:46:38.173Z,-89.00
2018-07-04T06:47:38.940Z,-86.00
2018-07-04T06:48:39.714Z,-87.00
2018-07-04T06:49:40.517Z,-87.00
2018-07-04T06:50:41.284Z,-87.00
2018-07-04T06:51:42.058Z,-86.00
2018-07-04T06:52:42.831Z,-87.00
2018-07-04T06:53:43.601Z,-87.00
2018-07-04T06:54:44.406Z,-87.00
2018-07-04T06:55:45.172Z,-87.00
2018-07-04T06:56:45.952Z,-87.00
2018-07-04T06:57:46.722Z,-88.00
2018-07-04T06:58:47.499Z,-87.00
2018-07-04T06:59:48.290Z,-87.00
2018-07-04T07:00:49.058Z,-87.00
2018-07-04T07:01:49.859Z,-87.00
2018-07-04T07:02:50.609Z,-87.00
2018-07-04T07:03:51.382Z,-87.00
2018-07-04T07:04:52.178Z,-86.00
2018-07-04T07:05:52.947Z,-86.00
2018-07-04T07:06:53.720Z,-87.00
2018-07-04T07:07:54.493Z,-87.00
2018-07-04T07:08:55.274Z,-86.00
2018-07-04T07:09:56.066Z,-86.00
2018-07-04T07:10:56.836Z,-86.00
2018-07-04T07:11:57.612Z,-87.00
2018-07-04T07:12:58.383Z,-86.00
2018-07-04T07:13:59.157Z,-85.00
2018-07-04T07:14:59.963Z,-89.00
2018-07-04T07:16:00.744Z,-88.00
2018-07-04T07:17:01.514Z,-86.00
2018-07-04T07:18:02.282Z,-87.00
2018-07-04T07:19:03.063Z,-89.00
2018-07-04T07:20:03.860Z,-89.00
2018-07-04T07:21:03.642Z,-88.00
2018-07-04T07:22:05.405Z,-89.00
2018-07-04T07:23:06.184Z,-90.00
2018-07-04T07:24:06.977Z,-90.00
2018-07-04T07:25:07.749Z,-89.00
2018-07-04T07:26:08.524Z,-90.00
2018-07-04T07:27:09.295Z,-89.00
2018-07-04T07:28:10.067Z,-89.00
2018-07-04T07:29:10.845Z,-90.00
2018-07-04T07:30:11.641Z,-89.00
2018-07-04T07:31:12.414Z,-88.00
2018-07-04T07:32:13.194Z,-90.00
2018-07-04T07:33:13.968Z,-88.00
2018-07-04T07:34:14.835Z,-89.00
2018-07-04T07:35:14.538Z,-90.00
2018-07-04T07:36:16.309Z,-89.00
2018-07-04T07:37:17.086Z,-88.00
2018-07-04T07:38:16.854Z,-89.00
2018-07-04T07:39:18.631Z,-88.00
2018-07-04T07:40:19.434Z,-89.00
2018-07-04T07:41:20.205Z,-91.00
2018-07-04T07:42:20.979Z,-88.00
2018-07-04T07:43:21.765Z,-88.00
2018-07-04T07:44:22.528Z,-89.00
2018-07-04T07:45:23.320Z,-87.00
2018-07-04T07:46:24.174Z,-89.00
2018-07-04T07:47:23.944Z,-89.00
2018-07-04T07:48:25.721Z,-88.00
2018-07-04T07:49:26.500Z,-89.00
2018-07-04T07:50:27.295Z,-88.00
2018-07-04T07:51:28.065Z,-89.00
2018-07-04T07:52:28.842Z,-89.00
2018-07-04T07:53:29.610Z,-89.00
2018-07-04T07:54:30.458Z,-88.00
2018-07-04T07:55:30.179Z,-89.00
2018-07-04T07:56:31.965Z,-89.00
2018-07-04T07:57:32.736Z,-89.00
2018-07-04T07:58:33.512Z,-88.00
2018-07-04T07:59:34.286Z,-89.00
2018-07-04T08:00:35.081Z,-89.00
2018-07-04T08:01:35.857Z,-89.00
2018-07-04T08:02:36.625Z,-88.00
2018-07-04T08:03:37.403Z,-89.00
2018-07-04T08:04:38.176Z,-89.00
2018-07-04T08:05:38.976Z,-89.00
2018-07-04T08:06:39.990Z,-90.00
2018-07-04T08:07:39.685Z,-89.00
2018-07-04T08:08:41.459Z,-88.00
2018-07-04T08:09:42.237Z,-87.00
2018-07-04T08:10:43.033Z,-88.00
2018-07-04T08:11:43.803Z,-90.00
2018-07-04T08:12:44.635Z,-88.00
2018-07-04T08:13:44.353Z,-89.00
2018-07-04T08:14:46.126Z,-89.00
2018-07-04T08:15:46.919Z,-87.00
2018-07-04T08:16:47.695Z,-89.00
2018-07-04T08:17:48.474Z,-89.00
2018-07-04T08:18:49.274Z,-89.00
2018-07-04T08:19:49.022Z,-89.00
2018-07-04T08:20:50.818Z,-89.00
2018-07-04T08:21:51.590Z,-87.00
2018-07-04T08:22:52.363Z,-86.00
2018-07-04T08:23:56.383Z,-86.00
2018-07-04T08:24:53.737Z,-86.00
2018-07-04T08:25:52.954Z,-86.00
2018-07-04T08:27:17.550Z,-86.00
2018-07-04T08:28:18.318Z,-87.00
2018-07-04T08:29:19.089Z,-86.00
2018-07-04T08:30:19.862Z,-87.00
2018-07-04T08:31:20.667Z,-86.00
2018-07-04T08:32:21.441Z,-86.00
2018-07-04T08:33:22.270Z,-87.00
2018-07-04T08:34:22.165Z,-86.00
2018-07-04T08:35:22.863Z,-87.00
2018-07-04T08:36:24.660Z,-86.00
2018-07-04T08:37:25.424Z,-86.00
2018-07-04T08:38:26.195Z,-87.00
2018-07-04T08:39:26.973Z,-86.00
2018-07-04T08:40:27.745Z,-87.00
2018-07-04T08:41:28.574Z,-86.00
2018-07-04T08:42:29.339Z,-88.00
2018-07-04T08:43:30.120Z,-87.00
2018-07-04T08:44:30.882Z,-87.00
2018-07-04T08:45:31.657Z,-87.00
2018-07-04T08:46:32.453Z,-86.00
2018-07-04T08:47:33.226Z,-88.00
2018-07-04T08:48:33.992Z,-86.00
2018-07-04T08:49:34.765Z,-87.00
2018-07-04T08:50:35.577Z,-86.00
2018-07-04T08:51:35.336Z,-87.00
2018-07-04T08:52:36.139Z,-86.00
2018-07-04T08:53:36.883Z,-88.00
2018-07-04T08:54:38.655Z,-87.00
2018-07-04T08:55:39.426Z,-87.00
2018-07-04T08:56:40.225Z,-86.00
2018-07-04T08:57:40.997Z,-86.00
2018-07-04T08:58:41.848Z,-87.00
2018-07-04T08:59:41.546Z,-87.00
2018-07-04T09:00:43.318Z,-86.00
2018-07-04T09:01:44.115Z,-86.00
2018-07-04T09:02:44.888Z,-87.00
2018-07-04T09:03:45.665Z,-87.00
2018-07-04T09:04:46.432Z,-87.00
2018-07-04T09:05:47.216Z,-87.00
2018-07-04T09:06:48.013Z,-86.00
2018-07-04T09:07:48.777Z,-87.00
2018-07-04T09:08:49.550Z,-86.00
2018-07-04T09:09:50.322Z,-87.00
2018-07-04T09:10:51.099Z,-86.00
2018-07-04T09:11:51.937Z,-86.00
2018-07-04T09:12:51.666Z,-88.00
2018-07-04T09:13:53.437Z,-87.00
2018-07-04T09:14:54.214Z,-88.00
2018-07-04T09:15:54.984Z,-87.00
2018-07-04T09:16:55.782Z,-89.00
2018-07-04T09:17:56.556Z,-86.00
2018-07-04T09:18:57.352Z,-87.00
2018-07-04T09:19:58.114Z,-87.00
2018-07-04T09:20:58.909Z,-87.00
2018-07-04T09:21:59.691Z,-87.00
2018-07-04T09:23:00.467Z,-86.00
2018-07-04T09:24:01.239Z,-87.00
2018-07-04T09:25:02.012Z,-88.00
2018-07-04T09:26:02.786Z,-88.00
2018-07-04T09:27:03.593Z,-88.00
2018-07-04T09:28:04.364Z,-87.00
2018-07-04T09:29:05.132Z,-87.00
2018-07-04T09:30:05.915Z,-87.00
2018-07-04T09:31:06.690Z,-87.00
2018-07-04T09:32:07.478Z,-87.00
2018-07-04T09:33:08.258Z,-87.00
2018-07-04T09:34:09.029Z,-87.00
2018-07-04T09:35:09.800Z,-88.00
2018-07-04T09:36:10.579Z,-88.00
2018-07-04T09:37:11.373Z,-88.00
2018-07-04T09:38:12.145Z,-88.00
2018-07-04T09:39:12.930Z,-87.00
2018-07-04T09:40:13.694Z,-87.00
2018-07-04T09:41:14.473Z,-88.00
2018-07-04T09:42:15.279Z,-88.00
2018-07-04T09:43:16.046Z,-87.00
2018-07-04T09:44:16.819Z,-87.00
2018-07-04T09:45:17.598Z,-86.00
2018-07-04T09:46:18.377Z,-87.00
2018-07-04T09:47:19.168Z,-88.00
2018-07-04T09:48:19.950Z,-88.00
2018-07-04T09:49:20.712Z,-88.00
2018-07-04T09:50:21.488Z,-88.00
2018-07-04T09:51:22.260Z,-87.00
2018-07-04T09:52:23.062Z,-87.00
2018-07-04T09:53:23.830Z,-87.00
2018-07-04T09:54:24.609Z,-88.00
2018-07-04T09:55:25.381Z,-87.00
2018-07-04T09:56:26.161Z,-88.00
2018-07-04T09:57:26.954Z,-89.00
2018-07-04T09:58:27.723Z,-87.00
2018-07-04T09:59:28.495Z,-89.00
2018-07-04T10:00:29.274Z,-90.00
2018-07-04T10:01:30.047Z,-88.00
2018-07-04T10:02:30.846Z,-88.00
2018-07-04T10:03:31.707Z,-88.00
2018-07-04T10:04:31.449Z,-88.00
2018-07-04T10:05:33.218Z,-88.00
2018-07-04T10:06:33.992Z,-86.00
2018-07-04T10:07:34.794Z,-87.00
2018-07-04T10:08:35.571Z,-88.00
2018-07-04T10:09:36.337Z,-88.00
2018-07-04T10:10:37.294Z,-88.00
2018-07-04T10:11:36.978Z,-87.00
2018-07-04T10:12:38.794Z,-89.00
2018-07-04T10:13:38.782Z,-86.00
2018-07-04T10:14:39.480Z,-88.00
2018-07-04T10:15:41.259Z,-87.00
2018-07-04T10:16:42.029Z,-87.00
2018-07-04T10:17:43.091Z,-88.00
2018-07-04T10:18:42.784Z,-87.00
2018-07-04T10:19:44.559Z,-88.00
2018-07-04T10:20:45.330Z,-87.00
2018-07-04T10:21:46.100Z,-90.00
2018-07-04T10:22:46.948Z,-88.00
2018-07-04T10:23:47.700Z,-89.00
2018-07-04T10:24:48.856Z,-88.00
2018-07-04T10:26:23.416Z,-87.00
2018-07-04T10:27:24.180Z,-88.00
2018-07-04T10:28:24.968Z,-88.00
2018-07-04T10:29:25.739Z,-87.00
2018-07-04T10:30:26.517Z,-88.00
2018-07-04T10:31:27.294Z,-88.00
2018-07-04T10:32:28.063Z,-91.00
2018-07-04T10:33:28.853Z,-90.00
2018-07-04T10:34:29.627Z,-90.00
2018-07-04T10:35:30.403Z,-90.00
2018-07-04T10:36:31.175Z,-90.00
2018-07-04T10:37:32.003Z,-91.00
2018-07-04T10:38:31.741Z,-91.00
2018-07-04T10:39:33.516Z,-90.00
2018-07-04T10:40:34.292Z,-90.00
2018-07-04T10:41:35.073Z,-90.00
2018-07-04T10:42:35.835Z,-90.00
2018-07-04T10:43:36.635Z,-90.00
2018-07-04T10:44:37.400Z,-90.00
2018-07-04T10:45:38.185Z,-91.00
2018-07-04T10:46:38.965Z,-91.00
2018-07-04T10:47:39.737Z,-90.00
2018-07-04T10:48:40.529Z,-91.00
2018-07-04T10:49:41.304Z,-90.00
2018-07-04T10:50:42.066Z,-91.00
2018-07-04T10:51:42.849Z,-91.00
2018-07-04T10:52:43.613Z,-90.00
2018-07-04T10:53:44.416Z,-91.00
2018-07-04T10:54:45.198Z,-94.00
2018-07-04T10:55:45.975Z,-92.00
2018-07-04T10:56:46.741Z,-92.00
2018-07-04T10:57:47.519Z,-91.00
2018-07-04T10:58:48.379Z,-92.00
2018-07-04T10:59:48.124Z,-91.00
2018-07-04T11:00:49.890Z,-93.00
2018-07-04T11:01:50.667Z,-91.00
2018-07-04T11:02:51.437Z,-91.00
2018-07-04T11:03:52.239Z,-91.00
2018-07-04T11:04:54.016Z,-92.00
2018-07-04T11:05:53.782Z,-91.00
2018-07-04T11:06:54.554Z,-91.00
2018-07-04T11:07:55.330Z,-91.00
2018-07-04T11:08:56.133Z,-91.00
2018-07-04T11:09:56.904Z,-90.00
2018-07-04T11:10:57.677Z,-91.00
2018-07-04T11:11:58.452Z,-91.00
2018-07-04T11:12:59.220Z,-92.00
2018-07-04T11:14:00.030Z,-91.00
2018-07-04T11:15:00.798Z,-92.00
2018-07-04T11:16:01.573Z,-92.00
2018-07-04T11:17:02.395Z,-91.00
2018-07-04T11:18:02.120Z,-92.00
2018-07-04T11:19:03.921Z,-91.00
2018-07-04T11:20:04.688Z,-92.00
2018-07-04T11:21:05.464Z,-91.00
2018-07-04T11:22:06.235Z,-91.00
2018-07-04T11:23:07.011Z,-91.00
2018-07-04T11:24:07.818Z,-92.00
2018-07-04T11:25:08.589Z,-92.00
2018-07-04T11:26:09.359Z,-90.00
2018-07-04T11:27:10.133Z,-90.00
2018-07-04T11:28:10.902Z,-89.00
2018-07-04T11:29:12.054Z,-92.00
2018-07-04T11:30:11.008Z,-92.00
2018-07-04T11:31:11.691Z,-88.00
2018-07-04T11:32:13.681Z,-88.00
2018-07-04T11:33:13.614Z,-89.00
2018-07-04T11:34:14.352Z,-88.00
2018-07-04T11:35:16.112Z,-90.00
2018-07-04T11:36:16.891Z,-89.00
2018-07-04T11:37:17.659Z,-89.00
2018-07-04T11:38:18.440Z,-89.00
2018-07-04T11:39:19.231Z,-89.00
2018-07-04T11:40:20.005Z,-88.00
2018-07-04T11:41:20.776Z,-88.00
2018-07-04T11:42:21.555Z,-89.00
2018-07-04T11:43:22.322Z,-89.00
2018-07-04T11:44:23.124Z,-89.00
2018-07-04T11:45:23.895Z,-89.00
2018-07-04T11:46:24.693Z,-90.00
2018-07-04T11:47:25.442Z,-89.00
2018-07-04T11:48:26.418Z,-88.00
2018-07-04T11:49:26.329Z,-90.00
2018-07-04T11:50:28.097Z,-88.00
2018-07-04T11:51:28.882Z,-88.00
2018-07-04T11:52:29.658Z,-88.00
2018-07-04T11:53:30.429Z,-89.00
2018-07-04T11:54:31.220Z,-88.00
2018-07-04T11:55:32.005Z,-89.00
2018-07-04T11:56:32.822Z,-89.00
2018-07-04T11:57:32.554Z,-89.00
2018-07-04T11:58:34.505Z,-88.00
2018-07-04T11:59:34.539Z,-88.00
2018-07-04T12:00:35.280Z,-88.00
2018-07-04T12:01:36.071Z,-90.00
2018-07-04T12:02:36.827Z,-92.00
2018-07-04T12:03:37.788Z,-90.00
2018-07-04T12:04:37.514Z,-92.00
2018-07-04T12:05:39.288Z,-90.00
2018-07-04T12:06:40.063Z,-91.00
2018-07-04T12:07:40.893Z,-91.00
2018-07-04T12:08:40.647Z,-92.00
2018-07-04T12:09:42.456Z,-91.00
2018-07-04T12:10:43.400Z,-92.00
2018-07-04T12:11:43.093Z,-92.00
2018-07-04T12:12:44.866Z,-91.00
2018-07-04T12:13:45.811Z,-93.00
2018-07-04T12:14:45.536Z,-90.00
2018-07-04T12:15:47.308Z,-90.00
2018-07-04T12:16:48.081Z,-91.00
2018-07-04T12:17:48.857Z,-92.00
2018-07-04T12:18:49.625Z,-92.00
2018-07-04T12:19:50.426Z,-91.00
2018-07-04T12:20:51.255Z,-91.00
2018-07-04T12:21:51.181Z,-90.00
2018-07-04T12:22:51.882Z,-91.00
2018-07-04T12:23:53.656Z,-91.00
2018-07-04T12:24:54.445Z,-91.00
2018-07-04T12:25:54.399Z,-91.00
2018-07-04T12:26:55.150Z,-91.00
2018-07-04T12:27:55.868Z,-91.00
2018-07-04T12:28:57.639Z,-91.00
2018-07-04T12:29:58.814Z,-90.00
2018-07-04T12:30:59.261Z,-91.00
2018-07-04T12:43:19.082Z,-89.00
2018-07-04T12:44:19.835Z,-89.00
2018-07-04T12:45:20.611Z,-89.00
2018-07-04T12:46:21.409Z,-89.00
2018-07-04T12:47:22.222Z,-89.00
2018-07-04T12:48:21.964Z,-89.00
2018-07-04T12:49:23.732Z,-89.00
2018-07-04T12:50:24.499Z,-89.00
2018-07-04T12:51:25.292Z,-89.00
2018-07-04T12:52:26.062Z,-88.00
2018-07-04T12:53:26.836Z,-88.00
2018-07-04T12:54:27.658Z,-89.00
2018-07-04T12:55:27.388Z,-88.00
2018-07-04T12:56:29.191Z,-88.00
2018-07-04T12:57:29.958Z,-89.00
2018-07-04T12:58:30.734Z,-88.00
2018-07-04T12:59:31.553Z,-89.00
2018-07-04T13:00:31.283Z,-89.00
2018-07-04T13:01:33.075Z,-88.00
2018-07-04T13:02:33.845Z,-88.00
2018-07-04T13:03:34.616Z,-89.00
2018-07-04T13:04:35.407Z,-90.00
2018-07-04T13:05:36.178Z,-89.00
2018-07-04T13:06:37.727Z,-90.00
2018-07-04T13:07:36.408Z,-89.00
2018-07-04T13:08:38.192Z,-88.00
2018-07-04T13:09:37.966Z,-90.00
2018-07-04T13:10:42.883Z,-90.00
2018-07-04T13:11:39.676Z,-90.00
2018-07-04T13:12:40.461Z,-91.00
2018-07-04T13:13:42.221Z,-90.00
2018-07-04T13:14:43.012Z,-90.00
2018-07-04T13:15:43.767Z,-91.00
2018-07-04T13:16:44.576Z,-91.00
2018-07-04T13:17:45.352Z,-91.00
2018-07-04T13:18:46.129Z,-92.00
2018-07-04T13:19:46.919Z,-89.00
2018-07-04T13:20:47.742Z,-91.00
2018-07-04T13:21:50.270Z,-89.00